EPPO/POZ METAR and TAF weather

Enter ICAO airport designator
Station Type Date Time Source
EPPO METAR 2020/03/31 13:30 UTC NOAA

EPPO 311330Z 33010KT 9999 BKN044 03/M06 Q1028


Station Type Date Time Source
EPPO Decoded METAR 2020/03/31 13:30 UTC NOAA

Poznan, Poland (EPPO) 52-25N 016-50E 92M
Mar 31, 2020 - 09:30 AM EDT / 2020.03.31 1330 UTC
Wind: from the NNW (330 degrees) at 12 MPH (10 KT):0
Visibility: greater than 7 mile(s):0
Sky conditions: mostly cloudy
Temperature: 37 F (3 C)
Dew Point: 21 F (-6 C)
Relative Humidity: 51%
Pressure (altimeter): 30.36 in. Hg (1028 hPa)
ob: EPPO 311330Z 33010KT 9999 BKN044 03/M06 Q1028
cycle: 13

Station Type Date Time Source
EPPO TAF 2020/03/31 12:33 UTC NOAA

TAF EPPO 311130Z 3112/0112 35010KT 9999 SCT040
TEMPO 3112/3116 SCT020TCU
BECMG 3115/3118 27008KT
TEMPO 0110/0112 26015G25KT

Example: see airport list